アテネ の空港の天気 - METARとTAF

アテネ国際空港 ( LGAV / ATH ) - ギリシャ アテネ
飛行場実況気象(Metar)
観測時間10/25 22:20 EET (10/25 20:20 UTC)
風向・風速北北東 2m/s
視程10km以上
天気現象
なし
気温17℃
湿度83%
気圧1014hPa
METARLGAV 252020Z 02004KT CAVOK 17/14 Q1014 NOSIG
過去の天気等 Google飛行場航空写真 Wunderground天気予報

過去48時間のMETAR

飛行場予報(TAF)
発表時間: 10/25 19:00 EET (10/25 17:00 UTC)
予報対象時間: 25日20時 EET ~ 26日20時 EET
風向・風速不定 3m/s
視程10km以上
少しの雲 雲底高度 610m
TAF LGAV 251700Z 2518/2618 VRB05KT 9999 FEW020